sensor_id;sensor_type;location;lat;lon;timestamp;P1;durP1;ratioP1;P2;durP2;ratioP2
6193;SDS011;3130;41.564;23.280;2023-10-19T00:02:13;2.20;;;2.00;;
6193;SDS011;3130;41.564;23.280;2023-10-19T00:04:40;3.27;;;1.83;;
6193;SDS011;3130;41.564;23.280;2023-10-19T00:07:08;2.50;;;2.30;;
6193;SDS011;3130;41.564;23.280;2023-10-19T00:09:41;2.70;;;2.50;;
6193;SDS011;3130;41.564;23.280;2023-10-19T00:12:11;4.90;;;2.50;;
6193;SDS011;3130;41.564;23.280;2023-10-19T00:14:42;7.83;;;3.57;;
6193;SDS011;3130;41.564;23.280;2023-10-19T00:17:08;3.10;;;2.80;;
6193;SDS011;3130;41.564;23.280;2023-10-19T00:19:37;3.77;;;2.90;;
6193;SDS011;3130;41.564;23.280;2023-10-19T00:22:06;7.93;;;3.50;;
6193;SDS011;3130;41.564;23.280;2023-10-19T00:24:46;3.93;;;3.13;;
6193;SDS011;3130;41.564;23.280;2023-10-19T00:27:12;4.90;;;3.17;;
6193;SDS011;3130;41.564;23.280;2023-10-19T00:29:44;2.40;;;2.20;;
6193;SDS011;3130;41.564;23.280;2023-10-19T00:32:14;4.73;;;3.67;;
6193;SDS011;3130;41.564;23.280;2023-10-19T00:34:44;3.17;;;2.87;;
6193;SDS011;3130;41.564;23.280;2023-10-19T00:37:17;3.03;;;2.57;;
6193;SDS011;3130;41.564;23.280;2023-10-19T00:39:51;5.20;;;3.00;;
6193;SDS011;3130;41.564;23.280;2023-10-19T00:42:20;3.13;;;2.73;;
6193;SDS011;3130;41.564;23.280;2023-10-19T00:44:52;2.60;;;2.40;;
6193;SDS011;3130;41.564;23.280;2023-10-19T00:47:27;2.70;;;2.50;;
6193;SDS011;3130;41.564;23.280;2023-10-19T00:50:05;6.53;;;3.10;;
6193;SDS011;3130;41.564;23.280;2023-10-19T00:52:40;4.33;;;3.00;;
6193;SDS011;3130;41.564;23.280;2023-10-19T00:55:09;3.90;;;2.70;;
6193;SDS011;3130;41.564;23.280;2023-10-19T00:57:38;4.37;;;3.13;;
6193;SDS011;3130;41.564;23.280;2023-10-19T01:00:10;3.83;;;3.13;;
6193;SDS011;3130;41.564;23.280;2023-10-19T01:02:38;2.90;;;2.30;;
6193;SDS011;3130;41.564;23.280;2023-10-19T01:05:10;2.73;;;2.33;;
6193;SDS011;3130;41.564;23.280;2023-10-19T01:07:39;2.60;;;2.40;;
6193;SDS011;3130;41.564;23.280;2023-10-19T01:10:07;2.97;;;2.77;;
6193;SDS011;3130;41.564;23.280;2023-10-19T01:12:37;4.77;;;2.70;;
6193;SDS011;3130;41.564;23.280;2023-10-19T01:15:10;2.93;;;2.70;;
6193;SDS011;3130;41.564;23.280;2023-10-19T01:17:42;4.03;;;3.13;;
6193;SDS011;3130;41.564;23.280;2023-10-19T01:20:11;3.17;;;2.93;;
6193;SDS011;3130;41.564;23.280;2023-10-19T01:22:50;3.33;;;3.03;;
6193;SDS011;3130;41.564;23.280;2023-10-19T01:25:31;2.90;;;2.50;;
6193;SDS011;3130;41.564;23.280;2023-10-19T01:28:06;3.07;;;2.23;;
6193;SDS011;3130;41.564;23.280;2023-10-19T01:30:34;4.30;;;2.90;;
6193;SDS011;3130;41.564;23.280;2023-10-19T01:33:03;3.80;;;3.20;;
6193;SDS011;3130;41.564;23.280;2023-10-19T01:35:37;3.33;;;3.00;;
6193;SDS011;3130;41.564;23.280;2023-10-19T01:38:20;3.07;;;2.40;;
6193;SDS011;3130;41.564;23.280;2023-10-19T01:40:47;5.83;;;3.60;;
6193;SDS011;3130;41.564;23.280;2023-10-19T01:43:14;3.17;;;2.83;;
6193;SDS011;3130;41.564;23.280;2023-10-19T01:45:46;3.03;;;2.60;;
6193;SDS011;3130;41.564;23.280;2023-10-19T01:48:13;3.57;;;2.80;;
6193;SDS011;3130;41.564;23.280;2023-10-19T01:50:41;3.50;;;2.97;;
6193;SDS011;3130;41.564;23.280;2023-10-19T01:53:07;3.80;;;3.43;;
6193;SDS011;3130;41.564;23.280;2023-10-19T01:55:42;4.30;;;3.33;;
6193;SDS011;3130;41.564;23.280;2023-10-19T01:58:09;3.37;;;3.00;;
6193;SDS011;3130;41.564;23.280;2023-10-19T02:00:36;5.50;;;2.97;;
6193;SDS011;3130;41.564;23.280;2023-10-19T02:03:06;5.47;;;3.47;;
6193;SDS011;3130;41.564;23.280;2023-10-19T02:05:33;4.13;;;3.67;;
6193;SDS011;3130;41.564;23.280;2023-10-19T02:08:06;3.00;;;2.50;;
6193;SDS011;3130;41.564;23.280;2023-10-19T02:10:34;4.20;;;3.50;;
6193;SDS011;3130;41.564;23.280;2023-10-19T02:13:02;4.47;;;3.93;;
6193;SDS011;3130;41.564;23.280;2023-10-19T02:15:32;5.07;;;3.60;;
6193;SDS011;3130;41.564;23.280;2023-10-19T02:18:00;6.83;;;4.00;;
6193;SDS011;3130;41.564;23.280;2023-10-19T02:20:28;4.17;;;3.47;;
6193;SDS011;3130;41.564;23.280;2023-10-19T02:22:54;4.67;;;4.20;;
6193;SDS011;3130;41.564;23.280;2023-10-19T02:25:22;9.23;;;3.93;;
6193;SDS011;3130;41.564;23.280;2023-10-19T02:27:52;4.50;;;3.40;;
6193;SDS011;3130;41.564;23.280;2023-10-19T02:30:21;5.63;;;4.23;;
6193;SDS011;3130;41.564;23.280;2023-10-19T02:32:50;4.10;;;3.67;;
6193;SDS011;3130;41.564;23.280;2023-10-19T02:35:18;4.93;;;4.30;;
6193;SDS011;3130;41.564;23.280;2023-10-19T02:37:45;5.33;;;3.93;;
6193;SDS011;3130;41.564;23.280;2023-10-19T02:40:12;6.17;;;3.83;;
6193;SDS011;3130;41.564;23.280;2023-10-19T02:42:44;8.20;;;3.57;;
6193;SDS011;3130;41.564;23.280;2023-10-19T02:45:14;3.93;;;3.53;;
6193;SDS011;3130;41.564;23.280;2023-10-19T02:47:44;5.00;;;2.93;;
6193;SDS011;3130;41.564;23.280;2023-10-19T02:50:12;3.53;;;3.13;;
6193;SDS011;3130;41.564;23.280;2023-10-19T02:52:39;5.67;;;3.60;;
6193;SDS011;3130;41.564;23.280;2023-10-19T02:55:07;3.80;;;3.50;;
6193;SDS011;3130;41.564;23.280;2023-10-19T02:57:35;4.37;;;3.10;;
6193;SDS011;3130;41.564;23.280;2023-10-19T03:00:04;3.70;;;2.97;;
6193;SDS011;3130;41.564;23.280;2023-10-19T03:02:37;4.47;;;3.30;;
6193;SDS011;3130;41.564;23.280;2023-10-19T03:05:06;3.50;;;3.20;;
6193;SDS011;3130;41.564;23.280;2023-10-19T03:07:39;3.63;;;3.27;;
6193;SDS011;3130;41.564;23.280;2023-10-19T03:10:08;7.87;;;3.30;;
6193;SDS011;3130;41.564;23.280;2023-10-19T03:12:48;5.13;;;3.60;;
6193;SDS011;3130;41.564;23.280;2023-10-19T03:15:16;4.23;;;3.40;;
6193;SDS011;3130;41.564;23.280;2023-10-19T03:17:46;3.93;;;3.63;;
6193;SDS011;3130;41.564;23.280;2023-10-19T03:20:15;3.87;;;3.47;;
6193;SDS011;3130;41.564;23.280;2023-10-19T03:22:43;4.13;;;3.37;;
6193;SDS011;3130;41.564;23.280;2023-10-19T03:25:11;4.23;;;3.83;;
6193;SDS011;3130;41.564;23.280;2023-10-19T03:27:54;6.83;;;4.33;;
6193;SDS011;3130;41.564;23.280;2023-10-19T03:30:21;3.60;;;3.07;;
6193;SDS011;3130;41.564;23.280;2023-10-19T03:32:50;5.97;;;3.33;;
6193;SDS011;3130;41.564;23.280;2023-10-19T03:35:19;6.23;;;4.93;;
6193;SDS011;3130;41.564;23.280;2023-10-19T03:37:46;5.17;;;4.30;;
6193;SDS011;3130;41.564;23.280;2023-10-19T03:40:16;4.67;;;3.90;;
6193;SDS011;3130;41.564;23.280;2023-10-19T03:42:52;6.13;;;4.00;;
6193;SDS011;3130;41.564;23.280;2023-10-19T03:45:21;8.70;;;4.80;;
6193;SDS011;3130;41.564;23.280;2023-10-19T03:47:50;5.53;;;4.83;;
6193;SDS011;3130;41.564;23.280;2023-10-19T03:50:22;6.87;;;5.13;;
6193;SDS011;3130;41.564;23.280;2023-10-19T03:52:50;4.83;;;3.97;;
6193;SDS011;3130;41.564;23.280;2023-10-19T03:55:18;6.37;;;5.73;;
6193;SDS011;3130;41.564;23.280;2023-10-19T03:57:48;6.60;;;5.90;;
6193;SDS011;3130;41.564;23.280;2023-10-19T04:00:19;8.20;;;6.20;;
6193;SDS011;3130;41.564;23.280;2023-10-19T04:02:50;6.63;;;5.47;;
6193;SDS011;3130;41.564;23.280;2023-10-19T04:05:21;10.80;;;5.37;;
6193;SDS011;3130;41.564;23.280;2023-10-19T04:07:49;12.27;;;7.17;;
6193;SDS011;3130;41.564;23.280;2023-10-19T04:10:21;10.40;;;8.37;;
6193;SDS011;3130;41.564;23.280;2023-10-19T04:13:05;10.23;;;8.53;;
6193;SDS011;3130;41.564;23.280;2023-10-19T04:15:35;9.60;;;8.60;;
6193;SDS011;3130;41.564;23.280;2023-10-19T04:18:03;11.77;;;9.13;;
6193;SDS011;3130;41.564;23.280;2023-10-19T04:20:37;13.57;;;8.63;;
6193;SDS011;3130;41.564;23.280;2023-10-19T04:23:25;11.73;;;9.03;;
6193;SDS011;3130;41.564;23.280;2023-10-19T04:25:53;11.47;;;9.77;;
6193;SDS011;3130;41.564;23.280;2023-10-19T04:28:23;12.07;;;9.93;;
6193;SDS011;3130;41.564;23.280;2023-10-19T04:31:03;13.23;;;9.90;;
6193;SDS011;3130;41.564;23.280;2023-10-19T04:33:31;13.63;;;9.17;;
6193;SDS011;3130;41.564;23.280;2023-10-19T04:36:01;14.10;;;9.13;;
6193;SDS011;3130;41.564;23.280;2023-10-19T04:38:29;11.03;;;8.67;;
6193;SDS011;3130;41.564;23.280;2023-10-19T04:41:05;15.60;;;9.90;;
6193;SDS011;3130;41.564;23.280;2023-10-19T04:43:35;12.70;;;9.70;;
6193;SDS011;3130;41.564;23.280;2023-10-19T04:46:04;11.13;;;9.87;;
6193;SDS011;3130;41.564;23.280;2023-10-19T04:48:36;10.87;;;8.50;;
6193;SDS011;3130;41.564;23.280;2023-10-19T04:51:06;18.57;;;10.70;;
6193;SDS011;3130;41.564;23.280;2023-10-19T04:53:35;10.33;;;8.77;;
6193;SDS011;3130;41.564;23.280;2023-10-19T04:56:03;12.93;;;9.60;;
6193;SDS011;3130;41.564;23.280;2023-10-19T04:58:31;12.03;;;9.00;;
6193;SDS011;3130;41.564;23.280;2023-10-19T05:00:58;15.23;;;8.60;;
6193;SDS011;3130;41.564;23.280;2023-10-19T05:03:27;17.57;;;10.37;;
6193;SDS011;3130;41.564;23.280;2023-10-19T05:05:54;12.20;;;9.30;;
6193;SDS011;3130;41.564;23.280;2023-10-19T05:08:25;11.77;;;9.37;;
6193;SDS011;3130;41.564;23.280;2023-10-19T05:10:53;14.37;;;9.77;;
6193;SDS011;3130;41.564;23.280;2023-10-19T05:13:21;16.07;;;9.07;;
6193;SDS011;3130;41.564;23.280;2023-10-19T05:15:52;12.37;;;8.30;;
6193;SDS011;3130;41.564;23.280;2023-10-19T05:18:19;12.73;;;7.97;;
6193;SDS011;3130;41.564;23.280;2023-10-19T05:20:47;14.97;;;8.53;;
6193;SDS011;3130;41.564;23.280;2023-10-19T05:23:20;8.80;;;7.50;;
6193;SDS011;3130;41.564;23.280;2023-10-19T05:25:50;8.93;;;7.63;;
6193;SDS011;3130;41.564;23.280;2023-10-19T05:28:19;10.87;;;8.83;;
6193;SDS011;3130;41.564;23.280;2023-10-19T05:30:47;10.43;;;8.07;;
6193;SDS011;3130;41.564;23.280;2023-10-19T05:33:15;9.87;;;7.63;;
6193;SDS011;3130;41.564;23.280;2023-10-19T05:35:41;13.23;;;7.63;;
6193;SDS011;3130;41.564;23.280;2023-10-19T05:38:08;10.07;;;7.47;;
6193;SDS011;3130;41.564;23.280;2023-10-19T05:40:35;11.87;;;7.70;;
6193;SDS011;3130;41.564;23.280;2023-10-19T05:43:05;8.57;;;6.53;;
6193;SDS011;3130;41.564;23.280;2023-10-19T05:45:32;10.60;;;7.50;;
6193;SDS011;3130;41.564;23.280;2023-10-19T05:48:01;11.63;;;9.57;;
6193;SDS011;3130;41.564;23.280;2023-10-19T05:50:29;13.47;;;11.57;;
6193;SDS011;3130;41.564;23.280;2023-10-19T05:52:56;17.93;;;11.77;;
6193;SDS011;3130;41.564;23.280;2023-10-19T05:55:23;14.90;;;12.00;;
6193;SDS011;3130;41.564;23.280;2023-10-19T05:57:51;16.43;;;12.03;;
6193;SDS011;3130;41.564;23.280;2023-10-19T06:00:19;20.17;;;12.60;;
6193;SDS011;3130;41.564;23.280;2023-10-19T06:02:51;15.13;;;11.20;;
6193;SDS011;3130;41.564;23.280;2023-10-19T06:05:19;11.30;;;10.20;;
6193;SDS011;3130;41.564;23.280;2023-10-19T06:07:46;16.20;;;12.90;;
6193;SDS011;3130;41.564;23.280;2023-10-19T06:10:15;20.17;;;13.10;;
6193;SDS011;3130;41.564;23.280;2023-10-19T06:12:46;15.03;;;10.17;;
6193;SDS011;3130;41.564;23.280;2023-10-19T06:15:15;14.20;;;9.37;;
6193;SDS011;3130;41.564;23.280;2023-10-19T06:17:45;10.20;;;8.30;;
6193;SDS011;3130;41.564;23.280;2023-10-19T06:20:13;9.23;;;7.87;;
6193;SDS011;3130;41.564;23.280;2023-10-19T06:22:49;15.53;;;9.30;;
6193;SDS011;3130;41.564;23.280;2023-10-19T06:25:17;16.90;;;11.10;;
6193;SDS011;3130;41.564;23.280;2023-10-19T06:27:46;14.10;;;9.90;;
6193;SDS011;3130;41.564;23.280;2023-10-19T06:30:14;15.57;;;9.93;;
6193;SDS011;3130;41.564;23.280;2023-10-19T06:32:49;13.73;;;10.53;;
6193;SDS011;3130;41.564;23.280;2023-10-19T06:35:17;13.03;;;10.10;;
6193;SDS011;3130;41.564;23.280;2023-10-19T06:37:45;12.70;;;9.67;;
6193;SDS011;3130;41.564;23.280;2023-10-19T06:40:13;12.87;;;7.97;;
6193;SDS011;3130;41.564;23.280;2023-10-19T06:42:41;8.13;;;6.77;;
6193;SDS011;3130;41.564;23.280;2023-10-19T06:45:10;13.93;;;10.17;;
6193;SDS011;3130;41.564;23.280;2023-10-19T06:47:39;8.07;;;6.27;;
6193;SDS011;3130;41.564;23.280;2023-10-19T06:50:09;8.90;;;5.87;;
6193;SDS011;3130;41.564;23.280;2023-10-19T06:52:37;6.03;;;5.43;;
6193;SDS011;3130;41.564;23.280;2023-10-19T06:55:04;9.73;;;5.40;;
6193;SDS011;3130;41.564;23.280;2023-10-19T06:57:36;10.43;;;6.00;;
6193;SDS011;3130;41.564;23.280;2023-10-19T07:00:04;9.80;;;8.13;;
6193;SDS011;3130;41.564;23.280;2023-10-19T07:02:39;9.67;;;6.47;;
6193;SDS011;3130;41.564;23.280;2023-10-19T07:05:09;9.17;;;7.00;;
6193;SDS011;3130;41.564;23.280;2023-10-19T07:07:38;6.90;;;6.20;;
6193;SDS011;3130;41.564;23.280;2023-10-19T07:10:06;11.40;;;6.70;;
6193;SDS011;3130;41.564;23.280;2023-10-19T07:12:33;8.23;;;6.57;;
6193;SDS011;3130;41.564;23.280;2023-10-19T07:15:02;9.70;;;8.70;;
6193;SDS011;3130;41.564;23.280;2023-10-19T07:17:32;7.70;;;6.97;;
6193;SDS011;3130;41.564;23.280;2023-10-19T07:19:59;10.07;;;6.40;;
6193;SDS011;3130;41.564;23.280;2023-10-19T07:22:29;7.77;;;6.23;;
6193;SDS011;3130;41.564;23.280;2023-10-19T07:24:56;13.77;;;7.47;;
6193;SDS011;3130;41.564;23.280;2023-10-19T07:27:25;9.47;;;6.53;;
6193;SDS011;3130;41.564;23.280;2023-10-19T07:29:53;8.00;;;7.00;;
6193;SDS011;3130;41.564;23.280;2023-10-19T07:32:21;10.67;;;5.20;;
6193;SDS011;3130;41.564;23.280;2023-10-19T07:34:48;8.23;;;5.30;;
6193;SDS011;3130;41.564;23.280;2023-10-19T07:37:16;8.33;;;5.70;;
6193;SDS011;3130;41.564;23.280;2023-10-19T07:39:46;8.53;;;5.73;;
6193;SDS011;3130;41.564;23.280;2023-10-19T07:42:13;4.97;;;4.47;;
6193;SDS011;3130;41.564;23.280;2023-10-19T07:44:41;11.93;;;6.13;;
6193;SDS011;3130;41.564;23.280;2023-10-19T07:47:09;6.80;;;5.20;;
6193;SDS011;3130;41.564;23.280;2023-10-19T07:49:37;5.97;;;4.80;;
6193;SDS011;3130;41.564;23.280;2023-10-19T07:52:04;4.73;;;4.17;;
6193;SDS011;3130;41.564;23.280;2023-10-19T07:54:33;9.27;;;5.43;;
6193;SDS011;3130;41.564;23.280;2023-10-19T07:57:02;7.57;;;6.67;;
6193;SDS011;3130;41.564;23.280;2023-10-19T07:59:31;10.90;;;6.00;;
6193;SDS011;3130;41.564;23.280;2023-10-19T08:01:58;8.10;;;5.40;;
6193;SDS011;3130;41.564;23.280;2023-10-19T08:04:27;6.00;;;5.37;;
6193;SDS011;3130;41.564;23.280;2023-10-19T08:06:54;7.77;;;5.97;;
6193;SDS011;3130;41.564;23.280;2023-10-19T08:09:22;6.93;;;5.13;;
6193;SDS011;3130;41.564;23.280;2023-10-19T08:11:49;4.65;;;4.20;;
6193;SDS011;3130;41.564;23.280;2023-10-19T08:14:22;8.68;;;4.78;;
6193;SDS011;3130;41.564;23.280;2023-10-19T08:16:50;12.27;;;5.50;;
6193;SDS011;3130;41.564;23.280;2023-10-19T08:19:18;5.03;;;4.53;;
6193;SDS011;3130;41.564;23.280;2023-10-19T08:21:45;6.17;;;4.13;;
6193;SDS011;3130;41.564;23.280;2023-10-19T08:24:12;8.40;;;5.40;;
6193;SDS011;3130;41.564;23.280;2023-10-19T08:26:43;5.13;;;4.20;;
6193;SDS011;3130;41.564;23.280;2023-10-19T08:29:11;4.93;;;4.43;;
6193;SDS011;3130;41.564;23.280;2023-10-19T08:31:41;8.23;;;5.30;;
6193;SDS011;3130;41.564;23.280;2023-10-19T08:34:10;7.87;;;6.30;;
6193;SDS011;3130;41.564;23.280;2023-10-19T08:36:38;9.80;;;6.30;;
6193;SDS011;3130;41.564;23.280;2023-10-19T08:39:06;9.37;;;5.80;;
6193;SDS011;3130;41.564;23.280;2023-10-19T08:41:34;6.10;;;5.50;;
6193;SDS011;3130;41.564;23.280;2023-10-19T08:44:03;6.50;;;5.87;;
6193;SDS011;3130;41.564;23.280;2023-10-19T08:46:36;6.77;;;6.17;;
6193;SDS011;3130;41.564;23.280;2023-10-19T08:49:07;8.53;;;6.80;;
6193;SDS011;3130;41.564;23.280;2023-10-19T08:51:35;8.37;;;6.80;;
6193;SDS011;3130;41.564;23.280;2023-10-19T08:54:04;7.73;;;5.47;;
6193;SDS011;3130;41.564;23.280;2023-10-19T08:56:32;5.97;;;5.37;;
6193;SDS011;3130;41.564;23.280;2023-10-19T08:59:00;7.27;;;6.13;;
6193;SDS011;3130;41.564;23.280;2023-10-19T09:01:28;8.00;;;6.03;;
6193;SDS011;3130;41.564;23.280;2023-10-19T09:03:56;5.33;;;4.40;;
6193;SDS011;3130;41.564;23.280;2023-10-19T09:06:25;7.33;;;5.30;;
6193;SDS011;3130;41.564;23.280;2023-10-19T09:08:54;5.17;;;4.67;;
6193;SDS011;3130;41.564;23.280;2023-10-19T09:11:23;6.27;;;5.67;;
6193;SDS011;3130;41.564;23.280;2023-10-19T09:13:51;8.73;;;6.23;;
6193;SDS011;3130;41.564;23.280;2023-10-19T09:16:19;6.40;;;5.77;;
6193;SDS011;3130;41.564;23.280;2023-10-19T09:18:47;6.97;;;5.30;;
6193;SDS011;3130;41.564;23.280;2023-10-19T09:21:16;6.80;;;6.10;;
6193;SDS011;3130;41.564;23.280;2023-10-19T09:23:52;7.90;;;7.13;;
6193;SDS011;3130;41.564;23.280;2023-10-19T09:26:20;5.33;;;4.83;;
6193;SDS011;3130;41.564;23.280;2023-10-19T09:28:48;6.83;;;5.20;;
6193;SDS011;3130;41.564;23.280;2023-10-19T09:31:17;7.50;;;5.43;;
6193;SDS011;3130;41.564;23.280;2023-10-19T09:33:46;5.97;;;4.90;;
6193;SDS011;3130;41.564;23.280;2023-10-19T09:36:15;5.33;;;4.83;;
6193;SDS011;3130;41.564;23.280;2023-10-19T09:38:44;8.30;;;6.50;;
6193;SDS011;3130;41.564;23.280;2023-10-19T09:41:15;5.90;;;4.87;;
6193;SDS011;3130;41.564;23.280;2023-10-19T09:43:45;5.53;;;4.93;;
6193;SDS011;3130;41.564;23.280;2023-10-19T09:46:18;5.67;;;5.00;;
6193;SDS011;3130;41.564;23.280;2023-10-19T09:48:48;8.03;;;5.20;;
6193;SDS011;3130;41.564;23.280;2023-10-19T09:51:17;8.77;;;5.73;;
6193;SDS011;3130;41.564;23.280;2023-10-19T09:53:47;5.60;;;4.97;;
6193;SDS011;3130;41.564;23.280;2023-10-19T09:56:20;6.03;;;5.30;;
6193;SDS011;3130;41.564;23.280;2023-10-19T09:59:04;6.53;;;5.30;;
6193;SDS011;3130;41.564;23.280;2023-10-19T10:04:44;7.10;;;5.90;;
6193;SDS011;3130;41.564;23.280;2023-10-19T10:07:12;8.40;;;5.93;;
6193;SDS011;3130;41.564;23.280;2023-10-19T10:09:41;5.33;;;4.83;;
6193;SDS011;3130;41.564;23.280;2023-10-19T10:12:20;9.23;;;6.70;;
6193;SDS011;3130;41.564;23.280;2023-10-19T10:14:58;9.17;;;5.97;;
6193;SDS011;3130;41.564;23.280;2023-10-19T10:17:28;9.63;;;6.20;;
6193;SDS011;3130;41.564;23.280;2023-10-19T10:23:15;5.63;;;5.03;;
6193;SDS011;3130;41.564;23.280;2023-10-19T10:25:46;6.13;;;5.47;;
6193;SDS011;3130;41.564;23.280;2023-10-19T10:28:16;6.30;;;5.70;;
6193;SDS011;3130;41.564;23.280;2023-10-19T10:33:42;5.97;;;5.27;;
6193;SDS011;3130;41.564;23.280;2023-10-19T10:36:14;7.17;;;6.47;;
6193;SDS011;3130;41.564;23.280;2023-10-19T10:38:42;8.00;;;5.70;;
6193;SDS011;3130;41.564;23.280;2023-10-19T10:41:10;8.00;;;6.07;;
6193;SDS011;3130;41.564;23.280;2023-10-19T10:43:51;6.73;;;4.67;;
6193;SDS011;3130;41.564;23.280;2023-10-19T10:46:20;6.70;;;5.40;;
6193;SDS011;3130;41.564;23.280;2023-10-19T10:48:48;6.23;;;4.40;;
6193;SDS011;3130;41.564;23.280;2023-10-19T10:51:20;6.00;;;4.63;;
6193;SDS011;3130;41.564;23.280;2023-10-19T10:53:49;6.20;;;4.90;;
6193;SDS011;3130;41.564;23.280;2023-10-19T10:56:18;5.97;;;4.10;;
6193;SDS011;3130;41.564;23.280;2023-10-19T10:58:47;6.20;;;5.00;;
6193;SDS011;3130;41.564;23.280;2023-10-19T11:01:27;5.30;;;4.57;;
6193;SDS011;3130;41.564;23.280;2023-10-19T11:04:05;7.93;;;5.77;;
6193;SDS011;3130;41.564;23.280;2023-10-19T11:06:33;5.07;;;4.10;;
6193;SDS011;3130;41.564;23.280;2023-10-19T11:09:11;6.93;;;4.33;;
6193;SDS011;3130;41.564;23.280;2023-10-19T11:11:40;4.30;;;3.90;;
6193;SDS011;3130;41.564;23.280;2023-10-19T11:14:08;5.73;;;3.77;;
6193;SDS011;3130;41.564;23.280;2023-10-19T11:16:38;5.23;;;3.33;;
6193;SDS011;3130;41.564;23.280;2023-10-19T11:19:05;5.57;;;4.97;;
6193;SDS011;3130;41.564;23.280;2023-10-19T11:21:32;4.80;;;4.30;;
6193;SDS011;3130;41.564;23.280;2023-10-19T11:24:00;4.30;;;3.90;;
6193;SDS011;3130;41.564;23.280;2023-10-19T11:26:27;5.00;;;3.83;;
6193;SDS011;3130;41.564;23.280;2023-10-19T11:28:57;7.27;;;4.90;;
6193;SDS011;3130;41.564;23.280;2023-10-19T11:31:26;4.73;;;4.20;;
6193;SDS011;3130;41.564;23.280;2023-10-19T11:33:57;4.77;;;3.97;;
6193;SDS011;3130;41.564;23.280;2023-10-19T11:36:24;4.40;;;3.70;;
6193;SDS011;3130;41.564;23.280;2023-10-19T11:38:52;4.90;;;4.40;;
6193;SDS011;3130;41.564;23.280;2023-10-19T11:41:20;4.20;;;3.83;;
6193;SDS011;3130;41.564;23.280;2023-10-19T11:43:48;4.43;;;4.03;;
6193;SDS011;3130;41.564;23.280;2023-10-19T11:46:15;4.97;;;3.63;;
6193;SDS011;3130;41.564;23.280;2023-10-19T11:48:44;3.90;;;3.47;;
6193;SDS011;3130;41.564;23.280;2023-10-19T11:51:13;4.50;;;4.10;;
6193;SDS011;3130;41.564;23.280;2023-10-19T11:53:41;5.50;;;4.83;;
6193;SDS011;3130;41.564;23.280;2023-10-19T11:56:09;4.63;;;3.70;;
6193;SDS011;3130;41.564;23.280;2023-10-19T11:58:38;4.93;;;4.53;;
6193;SDS011;3130;41.564;23.280;2023-10-19T12:01:09;4.90;;;4.10;;
6193;SDS011;3130;41.564;23.280;2023-10-19T12:03:38;5.50;;;3.93;;
6193;SDS011;3130;41.564;23.280;2023-10-19T12:06:06;5.50;;;4.47;;
6193;SDS011;3130;41.564;23.280;2023-10-19T12:08:35;5.93;;;4.33;;
6193;SDS011;3130;41.564;23.280;2023-10-19T12:11:03;6.03;;;4.80;;
6193;SDS011;3130;41.564;23.280;2023-10-19T12:13:40;5.27;;;4.27;;
6193;SDS011;3130;41.564;23.280;2023-10-19T12:16:08;6.93;;;4.33;;
6193;SDS011;3130;41.564;23.280;2023-10-19T12:18:37;4.47;;;4.07;;
6193;SDS011;3130;41.564;23.280;2023-10-19T12:21:04;4.63;;;4.23;;
6193;SDS011;3130;41.564;23.280;2023-10-19T12:23:38;4.40;;;3.87;;
6193;SDS011;3130;41.564;23.280;2023-10-19T12:26:05;4.83;;;3.63;;
6193;SDS011;3130;41.564;23.280;2023-10-19T12:28:36;4.97;;;3.97;;
6193;SDS011;3130;41.564;23.280;2023-10-19T12:31:04;5.13;;;4.63;;
6193;SDS011;3130;41.564;23.280;2023-10-19T12:33:34;5.03;;;4.53;;
6193;SDS011;3130;41.564;23.280;2023-10-19T12:36:01;4.00;;;3.60;;
6193;SDS011;3130;41.564;23.280;2023-10-19T12:38:49;4.60;;;4.20;;
6193;SDS011;3130;41.564;23.280;2023-10-19T12:41:17;4.37;;;3.70;;
6193;SDS011;3130;41.564;23.280;2023-10-19T12:43:46;4.83;;;4.40;;
6193;SDS011;3130;41.564;23.280;2023-10-19T12:46:13;5.60;;;4.53;;
6193;SDS011;3130;41.564;23.280;2023-10-19T12:48:41;5.93;;;4.63;;
6193;SDS011;3130;41.564;23.280;2023-10-19T12:51:08;5.73;;;5.10;;
6193;SDS011;3130;41.564;23.280;2023-10-19T12:53:36;5.23;;;4.60;;
6193;SDS011;3130;41.564;23.280;2023-10-19T12:56:06;5.57;;;4.67;;
6193;SDS011;3130;41.564;23.280;2023-10-19T12:58:35;5.60;;;5.07;;
6193;SDS011;3130;41.564;23.280;2023-10-19T13:01:03;4.50;;;4.10;;
6193;SDS011;3130;41.564;23.280;2023-10-19T13:03:31;6.00;;;4.20;;
6193;SDS011;3130;41.564;23.280;2023-10-19T13:05:58;7.00;;;4.10;;
6193;SDS011;3130;41.564;23.280;2023-10-19T13:08:29;5.40;;;4.23;;
6193;SDS011;3130;41.564;23.280;2023-10-19T13:10:56;5.17;;;4.20;;
6193;SDS011;3130;41.564;23.280;2023-10-19T13:13:24;4.90;;;4.10;;
6193;SDS011;3130;41.564;23.280;2023-10-19T13:15:52;4.83;;;4.10;;
6193;SDS011;3130;41.564;23.280;2023-10-19T13:18:19;6.83;;;4.30;;
6193;SDS011;3130;41.564;23.280;2023-10-19T13:20:47;5.53;;;4.97;;
6193;SDS011;3130;41.564;23.280;2023-10-19T13:23:15;5.00;;;4.50;;
6193;SDS011;3130;41.564;23.280;2023-10-19T13:25:45;8.33;;;5.77;;
6193;SDS011;3130;41.564;23.280;2023-10-19T13:28:19;5.97;;;5.37;;
6193;SDS011;3130;41.564;23.280;2023-10-19T13:30:49;7.80;;;5.23;;
6193;SDS011;3130;41.564;23.280;2023-10-19T13:33:19;5.23;;;4.33;;
6193;SDS011;3130;41.564;23.280;2023-10-19T13:35:49;8.03;;;6.00;;
6193;SDS011;3130;41.564;23.280;2023-10-19T13:38:17;6.20;;;5.43;;
6193;SDS011;3130;41.564;23.280;2023-10-19T13:40:45;6.03;;;5.43;;
6193;SDS011;3130;41.564;23.280;2023-10-19T13:43:14;6.03;;;5.10;;
6193;SDS011;3130;41.564;23.280;2023-10-19T13:45:43;8.37;;;4.90;;
6193;SDS011;3130;41.564;23.280;2023-10-19T13:48:13;5.83;;;4.87;;
6193;SDS011;3130;41.564;23.280;2023-10-19T13:50:42;7.00;;;6.07;;
6193;SDS011;3130;41.564;23.280;2023-10-19T13:53:13;6.23;;;5.40;;
6193;SDS011;3130;41.564;23.280;2023-10-19T13:55:41;6.87;;;5.00;;
6193;SDS011;3130;41.564;23.280;2023-10-19T13:58:08;5.53;;;5.00;;
6193;SDS011;3130;41.564;23.280;2023-10-19T14:00:36;7.93;;;6.17;;
6193;SDS011;3130;41.564;23.280;2023-10-19T14:03:07;10.23;;;5.73;;
6193;SDS011;3130;41.564;23.280;2023-10-19T14:05:37;5.47;;;4.33;;
6193;SDS011;3130;41.564;23.280;2023-10-19T14:08:05;5.40;;;4.90;;
6193;SDS011;3130;41.564;23.280;2023-10-19T14:10:33;6.07;;;4.57;;
6193;SDS011;3130;41.564;23.280;2023-10-19T14:13:01;4.83;;;4.33;;
6193;SDS011;3130;41.564;23.280;2023-10-19T14:15:30;5.67;;;4.70;;
6193;SDS011;3130;41.564;23.280;2023-10-19T14:17:59;5.60;;;4.97;;
6193;SDS011;3130;41.564;23.280;2023-10-19T14:20:28;6.40;;;5.20;;
6193;SDS011;3130;41.564;23.280;2023-10-19T14:22:58;5.33;;;4.77;;
6193;SDS011;3130;41.564;23.280;2023-10-19T14:25:25;7.37;;;4.70;;
6193;SDS011;3130;41.564;23.280;2023-10-19T14:27:56;5.50;;;5.00;;
6193;SDS011;3130;41.564;23.280;2023-10-19T14:30:25;7.00;;;5.53;;
6193;SDS011;3130;41.564;23.280;2023-10-19T14:32:54;7.10;;;4.80;;
6193;SDS011;3130;41.564;23.280;2023-10-19T14:35:22;5.97;;;5.03;;
6193;SDS011;3130;41.564;23.280;2023-10-19T14:37:50;6.27;;;5.10;;
6193;SDS011;3130;41.564;23.280;2023-10-19T14:40:23;6.30;;;5.10;;
6193;SDS011;3130;41.564;23.280;2023-10-19T14:42:51;5.83;;;5.03;;
6193;SDS011;3130;41.564;23.280;2023-10-19T14:45:20;6.77;;;5.90;;
6193;SDS011;3130;41.564;23.280;2023-10-19T14:47:51;6.67;;;4.93;;
6193;SDS011;3130;41.564;23.280;2023-10-19T14:50:20;5.50;;;4.73;;
6193;SDS011;3130;41.564;23.280;2023-10-19T14:52:48;5.93;;;5.33;;
6193;SDS011;3130;41.564;23.280;2023-10-19T14:55:17;7.30;;;5.73;;
6193;SDS011;3130;41.564;23.280;2023-10-19T14:57:47;7.37;;;6.20;;
6193;SDS011;3130;41.564;23.280;2023-10-19T15:00:18;7.63;;;6.80;;
6193;SDS011;3130;41.564;23.280;2023-10-19T15:02:51;7.47;;;6.60;;
6193;SDS011;3130;41.564;23.280;2023-10-19T15:05:21;7.37;;;6.67;;
6193;SDS011;3130;41.564;23.280;2023-10-19T15:07:50;10.33;;;6.13;;
6193;SDS011;3130;41.564;23.280;2023-10-19T15:10:18;8.17;;;6.57;;
6193;SDS011;3130;41.564;23.280;2023-10-19T15:12:47;6.83;;;5.93;;
6193;SDS011;3130;41.564;23.280;2023-10-19T15:15:15;9.13;;;7.30;;
6193;SDS011;3130;41.564;23.280;2023-10-19T15:17:42;8.00;;;6.93;;
6193;SDS011;3130;41.564;23.280;2023-10-19T15:20:11;8.83;;;7.33;;
6193;SDS011;3130;41.564;23.280;2023-10-19T15:22:41;11.30;;;7.90;;